sensor_id;sensor_type;location;lat;lon;timestamp;P1;durP1;ratioP1;P2;durP2;ratioP2
13611;SDS011;6877;51.436;6.774;2023-12-14T00:01:16;40.65;;;17.23;;
13611;SDS011;6877;51.436;6.774;2023-12-14T00:03:48;41.38;;;17.05;;
13611;SDS011;6877;51.436;6.774;2023-12-14T00:06:15;41.92;;;14.98;;
13611;SDS011;6877;51.436;6.774;2023-12-14T00:08:41;37.55;;;14.55;;
13611;SDS011;6877;51.436;6.774;2023-12-14T00:11:08;37.97;;;13.85;;
13611;SDS011;6877;51.436;6.774;2023-12-14T00:13:36;35.20;;;14.93;;
13611;SDS011;6877;51.436;6.774;2023-12-14T00:16:03;29.63;;;12.15;;
13611;SDS011;6877;51.436;6.774;2023-12-14T00:18:30;30.27;;;12.80;;
13611;SDS011;6877;51.436;6.774;2023-12-14T00:20:57;34.05;;;12.43;;
13611;SDS011;6877;51.436;6.774;2023-12-14T00:23:23;29.02;;;13.20;;
13611;SDS011;6877;51.436;6.774;2023-12-14T00:25:50;23.88;;;11.75;;
13611;SDS011;6877;51.436;6.774;2023-12-14T00:28:16;27.10;;;11.10;;
13611;SDS011;6877;51.436;6.774;2023-12-14T00:30:43;28.98;;;10.60;;
13611;SDS011;6877;51.436;6.774;2023-12-14T00:33:09;26.25;;;11.43;;
13611;SDS011;6877;51.436;6.774;2023-12-14T00:35:36;20.98;;;10.45;;
13611;SDS011;6877;51.436;6.774;2023-12-14T00:38:03;21.15;;;9.10;;
13611;SDS011;6877;51.436;6.774;2023-12-14T00:40:34;21.80;;;10.15;;
13611;SDS011;6877;51.436;6.774;2023-12-14T00:43:00;22.98;;;9.23;;
13611;SDS011;6877;51.436;6.774;2023-12-14T00:45:27;18.75;;;8.80;;
13611;SDS011;6877;51.436;6.774;2023-12-14T00:47:53;20.60;;;8.85;;
13611;SDS011;6877;51.436;6.774;2023-12-14T00:50:25;24.55;;;11.00;;
13611;SDS011;6877;51.436;6.774;2023-12-14T00:52:51;19.42;;;8.25;;
13611;SDS011;6877;51.436;6.774;2023-12-14T00:55:18;18.58;;;9.13;;
13611;SDS011;6877;51.436;6.774;2023-12-14T00:57:49;21.00;;;10.68;;
13611;SDS011;6877;51.436;6.774;2023-12-14T01:00:20;22.67;;;10.30;;
13611;SDS011;6877;51.436;6.774;2023-12-14T01:02:47;25.70;;;10.50;;
13611;SDS011;6877;51.436;6.774;2023-12-14T01:05:13;25.85;;;12.05;;
13611;SDS011;6877;51.436;6.774;2023-12-14T01:07:40;23.67;;;10.35;;
13611;SDS011;6877;51.436;6.774;2023-12-14T01:10:07;27.50;;;11.80;;
13611;SDS011;6877;51.436;6.774;2023-12-14T01:12:33;20.30;;;10.60;;
13611;SDS011;6877;51.436;6.774;2023-12-14T01:15:00;21.58;;;10.05;;
13611;SDS011;6877;51.436;6.774;2023-12-14T01:17:26;19.83;;;9.50;;
13611;SDS011;6877;51.436;6.774;2023-12-14T01:19:59;18.55;;;9.02;;
13611;SDS011;6877;51.436;6.774;2023-12-14T01:22:26;20.13;;;10.55;;
13611;SDS011;6877;51.436;6.774;2023-12-14T01:24:52;15.77;;;8.15;;
13611;SDS011;6877;51.436;6.774;2023-12-14T01:27:24;17.98;;;9.75;;
13611;SDS011;6877;51.436;6.774;2023-12-14T01:29:51;20.13;;;10.32;;
13611;SDS011;6877;51.436;6.774;2023-12-14T01:32:17;20.73;;;10.30;;
13611;SDS011;6877;51.436;6.774;2023-12-14T01:34:48;24.67;;;11.50;;
13611;SDS011;6877;51.436;6.774;2023-12-14T01:37:15;24.50;;;11.05;;
13611;SDS011;6877;51.436;6.774;2023-12-14T01:39:41;20.52;;;10.43;;
13611;SDS011;6877;51.436;6.774;2023-12-14T01:42:08;26.27;;;11.65;;
13611;SDS011;6877;51.436;6.774;2023-12-14T01:44:34;24.30;;;10.85;;
13611;SDS011;6877;51.436;6.774;2023-12-14T01:47:01;27.23;;;11.00;;
13611;SDS011;6877;51.436;6.774;2023-12-14T01:49:27;26.48;;;12.43;;
13611;SDS011;6877;51.436;6.774;2023-12-14T01:51:59;23.27;;;11.27;;
13611;SDS011;6877;51.436;6.774;2023-12-14T01:54:25;32.03;;;13.80;;
13611;SDS011;6877;51.436;6.774;2023-12-14T01:56:57;20.70;;;10.25;;
13611;SDS011;6877;51.436;6.774;2023-12-14T01:59:23;28.80;;;12.27;;
13611;SDS011;6877;51.436;6.774;2023-12-14T02:01:53;26.85;;;12.57;;
13611;SDS011;6877;51.436;6.774;2023-12-14T02:04:27;22.38;;;11.48;;
13611;SDS011;6877;51.436;6.774;2023-12-14T02:06:53;22.55;;;10.63;;
13611;SDS011;6877;51.436;6.774;2023-12-14T02:09:20;25.85;;;14.00;;
13611;SDS011;6877;51.436;6.774;2023-12-14T02:11:51;28.77;;;12.18;;
13611;SDS011;6877;51.436;6.774;2023-12-14T02:14:23;26.88;;;11.88;;
13611;SDS011;6877;51.436;6.774;2023-12-14T02:16:54;26.02;;;12.48;;
13611;SDS011;6877;51.436;6.774;2023-12-14T02:19:21;26.40;;;13.63;;
13611;SDS011;6877;51.436;6.774;2023-12-14T02:21:52;32.33;;;13.95;;
13611;SDS011;6877;51.436;6.774;2023-12-14T02:24:18;34.90;;;15.85;;
13611;SDS011;6877;51.436;6.774;2023-12-14T02:26:45;31.17;;;14.48;;
13611;SDS011;6877;51.436;6.774;2023-12-14T02:29:14;34.75;;;16.17;;
13611;SDS011;6877;51.436;6.774;2023-12-14T02:31:41;28.92;;;14.25;;
13611;SDS011;6877;51.436;6.774;2023-12-14T02:34:07;37.80;;;15.90;;
13611;SDS011;6877;51.436;6.774;2023-12-14T02:36:34;39.83;;;17.52;;
13611;SDS011;6877;51.436;6.774;2023-12-14T02:39:00;35.85;;;16.40;;
13611;SDS011;6877;51.436;6.774;2023-12-14T02:41:32;35.45;;;15.60;;
13611;SDS011;6877;51.436;6.774;2023-12-14T02:43:58;34.92;;;15.00;;
13611;SDS011;6877;51.436;6.774;2023-12-14T02:46:24;37.00;;;16.05;;
13611;SDS011;6877;51.436;6.774;2023-12-14T02:48:51;32.50;;;15.00;;
13611;SDS011;6877;51.436;6.774;2023-12-14T02:51:22;34.83;;;15.07;;
13611;SDS011;6877;51.436;6.774;2023-12-14T02:53:49;31.20;;;13.23;;
13611;SDS011;6877;51.436;6.774;2023-12-14T02:56:20;37.38;;;15.45;;
13611;SDS011;6877;51.436;6.774;2023-12-14T02:58:47;32.97;;;14.13;;
13611;SDS011;6877;51.436;6.774;2023-12-14T03:01:20;28.02;;;12.43;;
13611;SDS011;6877;51.436;6.774;2023-12-14T03:03:50;32.60;;;13.35;;
13611;SDS011;6877;51.436;6.774;2023-12-14T03:06:16;33.88;;;15.27;;
13611;SDS011;6877;51.436;6.774;2023-12-14T03:08:43;31.20;;;12.65;;
13611;SDS011;6877;51.436;6.774;2023-12-14T03:11:21;25.60;;;12.57;;
13611;SDS011;6877;51.436;6.774;2023-12-14T03:13:54;31.25;;;13.48;;
13611;SDS011;6877;51.436;6.774;2023-12-14T03:16:21;28.50;;;12.80;;
13611;SDS011;6877;51.436;6.774;2023-12-14T03:18:52;37.28;;;13.30;;
13611;SDS011;6877;51.436;6.774;2023-12-14T03:21:24;29.27;;;13.38;;
13611;SDS011;6877;51.436;6.774;2023-12-14T03:23:56;34.78;;;13.55;;
13611;SDS011;6877;51.436;6.774;2023-12-14T03:26:27;37.03;;;13.43;;
13611;SDS011;6877;51.436;6.774;2023-12-14T03:28:54;32.45;;;14.85;;
13611;SDS011;6877;51.436;6.774;2023-12-14T03:31:20;34.38;;;14.05;;
13611;SDS011;6877;51.436;6.774;2023-12-14T03:33:46;40.58;;;15.60;;
13611;SDS011;6877;51.436;6.774;2023-12-14T03:36:13;37.53;;;13.00;;
13611;SDS011;6877;51.436;6.774;2023-12-14T03:38:39;27.73;;;13.57;;
13611;SDS011;6877;51.436;6.774;2023-12-14T03:41:06;33.28;;;13.90;;
13611;SDS011;6877;51.436;6.774;2023-12-14T03:43:32;32.88;;;13.77;;
13611;SDS011;6877;51.436;6.774;2023-12-14T03:46:04;33.85;;;15.50;;
13611;SDS011;6877;51.436;6.774;2023-12-14T03:48:37;33.92;;;15.75;;
13611;SDS011;6877;51.436;6.774;2023-12-14T03:51:04;34.42;;;14.30;;
13611;SDS011;6877;51.436;6.774;2023-12-14T03:53:35;38.25;;;15.23;;
13611;SDS011;6877;51.436;6.774;2023-12-14T03:56:02;38.13;;;15.38;;
13611;SDS011;6877;51.436;6.774;2023-12-14T03:58:29;34.83;;;16.17;;
13611;SDS011;6877;51.436;6.774;2023-12-14T04:00:56;35.20;;;16.73;;
13611;SDS011;6877;51.436;6.774;2023-12-14T04:03:22;42.60;;;16.88;;
13611;SDS011;6877;51.436;6.774;2023-12-14T04:05:48;39.03;;;17.75;;
13611;SDS011;6877;51.436;6.774;2023-12-14T04:08:15;43.08;;;19.05;;
13611;SDS011;6877;51.436;6.774;2023-12-14T04:10:46;40.30;;;16.27;;
13611;SDS011;6877;51.436;6.774;2023-12-14T04:13:13;42.95;;;18.48;;
13611;SDS011;6877;51.436;6.774;2023-12-14T04:15:39;47.88;;;18.60;;
13611;SDS011;6877;51.436;6.774;2023-12-14T04:18:08;51.63;;;19.40;;
13611;SDS011;6877;51.436;6.774;2023-12-14T04:20:35;50.38;;;17.55;;
13611;SDS011;6877;51.436;6.774;2023-12-14T04:23:06;37.80;;;17.00;;
13611;SDS011;6877;51.436;6.774;2023-12-14T04:25:38;44.40;;;16.85;;
13611;SDS011;6877;51.436;6.774;2023-12-14T04:28:04;48.30;;;16.25;;
13611;SDS011;6877;51.436;6.774;2023-12-14T04:30:31;45.30;;;17.67;;
13611;SDS011;6877;51.436;6.774;2023-12-14T04:32:57;38.45;;;17.65;;
13611;SDS011;6877;51.436;6.774;2023-12-14T04:35:24;45.80;;;18.00;;
13611;SDS011;6877;51.436;6.774;2023-12-14T04:37:50;35.72;;;15.20;;
13611;SDS011;6877;51.436;6.774;2023-12-14T04:40:17;41.28;;;17.23;;
13611;SDS011;6877;51.436;6.774;2023-12-14T04:42:43;50.83;;;16.60;;
13611;SDS011;6877;51.436;6.774;2023-12-14T04:45:10;39.05;;;15.05;;
13611;SDS011;6877;51.436;6.774;2023-12-14T04:47:36;42.70;;;14.63;;
13611;SDS011;6877;51.436;6.774;2023-12-14T04:50:03;34.28;;;13.32;;
13611;SDS011;6877;51.436;6.774;2023-12-14T04:52:30;36.08;;;13.50;;
13611;SDS011;6877;51.436;6.774;2023-12-14T04:54:57;30.25;;;12.88;;
13611;SDS011;6877;51.436;6.774;2023-12-14T04:57:23;34.80;;;13.82;;
13611;SDS011;6877;51.436;6.774;2023-12-14T04:59:50;35.78;;;14.60;;
13611;SDS011;6877;51.436;6.774;2023-12-14T05:02:16;42.25;;;14.82;;
13611;SDS011;6877;51.436;6.774;2023-12-14T05:04:43;35.88;;;14.63;;
13611;SDS011;6877;51.436;6.774;2023-12-14T05:07:14;37.90;;;13.00;;
13611;SDS011;6877;51.436;6.774;2023-12-14T05:09:41;32.88;;;15.25;;
13611;SDS011;6877;51.436;6.774;2023-12-14T05:12:12;37.22;;;14.48;;
13611;SDS011;6877;51.436;6.774;2023-12-14T05:14:39;36.08;;;14.27;;
13611;SDS011;6877;51.436;6.774;2023-12-14T05:17:05;35.63;;;13.55;;
13611;SDS011;6877;51.436;6.774;2023-12-14T05:19:32;37.70;;;13.00;;
13611;SDS011;6877;51.436;6.774;2023-12-14T05:22:00;36.25;;;14.88;;
13611;SDS011;6877;51.436;6.774;2023-12-14T05:24:26;32.90;;;13.55;;
13611;SDS011;6877;51.436;6.774;2023-12-14T05:26:53;36.83;;;13.50;;
13611;SDS011;6877;51.436;6.774;2023-12-14T05:29:19;31.15;;;13.30;;
13611;SDS011;6877;51.436;6.774;2023-12-14T05:31:47;40.08;;;15.30;;
13611;SDS011;6877;51.436;6.774;2023-12-14T05:34:14;37.08;;;16.33;;
13611;SDS011;6877;51.436;6.774;2023-12-14T05:36:42;36.55;;;14.32;;
13611;SDS011;6877;51.436;6.774;2023-12-14T05:39:08;34.92;;;14.13;;
13611;SDS011;6877;51.436;6.774;2023-12-14T05:41:41;37.75;;;16.65;;
13611;SDS011;6877;51.436;6.774;2023-12-14T05:44:08;38.00;;;15.73;;
13611;SDS011;6877;51.436;6.774;2023-12-14T05:46:34;39.17;;;15.27;;
13611;SDS011;6877;51.436;6.774;2023-12-14T05:49:01;36.35;;;15.40;;
13611;SDS011;6877;51.436;6.774;2023-12-14T05:51:29;34.20;;;15.05;;
13611;SDS011;6877;51.436;6.774;2023-12-14T05:53:56;36.92;;;15.65;;
13611;SDS011;6877;51.436;6.774;2023-12-14T05:56:24;42.17;;;16.60;;
13611;SDS011;6877;51.436;6.774;2023-12-14T05:58:56;43.45;;;15.88;;
13611;SDS011;6877;51.436;6.774;2023-12-14T06:01:23;35.42;;;16.25;;
13611;SDS011;6877;51.436;6.774;2023-12-14T06:03:50;37.50;;;15.75;;
13611;SDS011;6877;51.436;6.774;2023-12-14T06:06:21;38.53;;;15.45;;
13611;SDS011;6877;51.436;6.774;2023-12-14T06:08:48;38.13;;;16.10;;
13611;SDS011;6877;51.436;6.774;2023-12-14T06:11:19;38.17;;;15.32;;
13611;SDS011;6877;51.436;6.774;2023-12-14T06:13:46;38.38;;;15.30;;
13611;SDS011;6877;51.436;6.774;2023-12-14T06:16:12;31.67;;;14.27;;
13611;SDS011;6877;51.436;6.774;2023-12-14T06:18:39;36.13;;;15.95;;
13611;SDS011;6877;51.436;6.774;2023-12-14T06:21:08;36.97;;;15.38;;
13611;SDS011;6877;51.436;6.774;2023-12-14T06:23:37;43.35;;;17.33;;
13611;SDS011;6877;51.436;6.774;2023-12-14T06:26:09;41.92;;;15.80;;
13611;SDS011;6877;51.436;6.774;2023-12-14T06:28:35;44.17;;;17.55;;
13611;SDS011;6877;51.436;6.774;2023-12-14T06:31:01;39.35;;;16.65;;
13611;SDS011;6877;51.436;6.774;2023-12-14T06:33:28;41.42;;;17.05;;
13611;SDS011;6877;51.436;6.774;2023-12-14T06:35:55;38.28;;;15.93;;
13611;SDS011;6877;51.436;6.774;2023-12-14T06:38:26;40.97;;;16.55;;
13611;SDS011;6877;51.436;6.774;2023-12-14T06:40:57;39.70;;;16.23;;
13611;SDS011;6877;51.436;6.774;2023-12-14T06:43:24;35.63;;;15.10;;
13611;SDS011;6877;51.436;6.774;2023-12-14T06:45:50;46.45;;;18.77;;
13611;SDS011;6877;51.436;6.774;2023-12-14T06:48:21;49.85;;;18.98;;
13611;SDS011;6877;51.436;6.774;2023-12-14T06:50:48;44.13;;;17.65;;
13611;SDS011;6877;51.436;6.774;2023-12-14T06:53:14;53.97;;;20.95;;
13611;SDS011;6877;51.436;6.774;2023-12-14T06:55:42;55.60;;;19.98;;
13611;SDS011;6877;51.436;6.774;2023-12-14T06:58:13;54.10;;;19.35;;
13611;SDS011;6877;51.436;6.774;2023-12-14T07:00:40;49.90;;;19.13;;
13611;SDS011;6877;51.436;6.774;2023-12-14T07:03:06;49.45;;;20.50;;
13611;SDS011;6877;51.436;6.774;2023-12-14T07:05:38;56.45;;;21.75;;
13611;SDS011;6877;51.436;6.774;2023-12-14T07:08:05;50.50;;;20.60;;
13611;SDS011;6877;51.436;6.774;2023-12-14T07:10:31;63.92;;;21.25;;
13611;SDS011;6877;51.436;6.774;2023-12-14T07:12:58;54.58;;;21.50;;
13611;SDS011;6877;51.436;6.774;2023-12-14T07:15:29;61.08;;;21.30;;
13611;SDS011;6877;51.436;6.774;2023-12-14T07:17:56;49.28;;;20.67;;
13611;SDS011;6877;51.436;6.774;2023-12-14T07:20:22;52.42;;;22.33;;
13611;SDS011;6877;51.436;6.774;2023-12-14T07:22:49;53.13;;;22.50;;
13611;SDS011;6877;51.436;6.774;2023-12-14T07:25:15;54.53;;;21.55;;
13611;SDS011;6877;51.436;6.774;2023-12-14T07:27:42;57.97;;;22.00;;
13611;SDS011;6877;51.436;6.774;2023-12-14T07:30:10;57.13;;;23.27;;
13611;SDS011;6877;51.436;6.774;2023-12-14T07:32:42;53.00;;;21.60;;
13611;SDS011;6877;51.436;6.774;2023-12-14T07:35:08;57.00;;;20.55;;
13611;SDS011;6877;51.436;6.774;2023-12-14T07:37:41;62.42;;;23.25;;
13611;SDS011;6877;51.436;6.774;2023-12-14T07:40:12;68.15;;;23.10;;
13611;SDS011;6877;51.436;6.774;2023-12-14T07:42:39;67.72;;;23.67;;
13611;SDS011;6877;51.436;6.774;2023-12-14T07:45:10;62.00;;;21.15;;
13611;SDS011;6877;51.436;6.774;2023-12-14T07:47:37;53.55;;;22.38;;
13611;SDS011;6877;51.436;6.774;2023-12-14T07:50:03;59.47;;;24.25;;
13611;SDS011;6877;51.436;6.774;2023-12-14T07:52:35;59.95;;;22.35;;
13611;SDS011;6877;51.436;6.774;2023-12-14T07:55:02;59.50;;;21.58;;
13611;SDS011;6877;51.436;6.774;2023-12-14T07:57:34;60.55;;;23.33;;
13611;SDS011;6877;51.436;6.774;2023-12-14T08:00:01;59.70;;;24.02;;
13611;SDS011;6877;51.436;6.774;2023-12-14T08:02:35;51.28;;;21.00;;
13611;SDS011;6877;51.436;6.774;2023-12-14T08:05:01;54.95;;;20.90;;
13611;SDS011;6877;51.436;6.774;2023-12-14T08:07:28;58.63;;;22.35;;
13611;SDS011;6877;51.436;6.774;2023-12-14T08:09:55;51.50;;;20.88;;
13611;SDS011;6877;51.436;6.774;2023-12-14T08:12:22;50.42;;;20.88;;
13611;SDS011;6877;51.436;6.774;2023-12-14T08:14:50;52.75;;;20.67;;
13611;SDS011;6877;51.436;6.774;2023-12-14T08:17:21;48.65;;;20.17;;
13611;SDS011;6877;51.436;6.774;2023-12-14T08:19:48;52.80;;;21.15;;
13611;SDS011;6877;51.436;6.774;2023-12-14T08:22:14;46.78;;;20.33;;
13611;SDS011;6877;51.436;6.774;2023-12-14T08:24:41;47.25;;;20.30;;
13611;SDS011;6877;51.436;6.774;2023-12-14T08:27:08;40.58;;;19.55;;
13611;SDS011;6877;51.436;6.774;2023-12-14T08:29:34;50.75;;;20.27;;
13611;SDS011;6877;51.436;6.774;2023-12-14T08:32:06;53.13;;;19.95;;
13611;SDS011;6877;51.436;6.774;2023-12-14T08:34:32;39.17;;;17.80;;
13611;SDS011;6877;51.436;6.774;2023-12-14T08:37:00;46.35;;;20.40;;
13611;SDS011;6877;51.436;6.774;2023-12-14T08:39:27;46.03;;;19.33;;
13611;SDS011;6877;51.436;6.774;2023-12-14T08:41:54;46.75;;;20.35;;
13611;SDS011;6877;51.436;6.774;2023-12-14T08:44:25;40.47;;;17.33;;
13611;SDS011;6877;51.436;6.774;2023-12-14T08:46:51;45.25;;;19.85;;
13611;SDS011;6877;51.436;6.774;2023-12-14T08:49:18;41.03;;;19.38;;
13611;SDS011;6877;51.436;6.774;2023-12-14T08:51:44;43.95;;;19.45;;
13611;SDS011;6877;51.436;6.774;2023-12-14T08:54:11;41.38;;;18.80;;
13611;SDS011;6877;51.436;6.774;2023-12-14T08:56:43;39.67;;;17.55;;
13611;SDS011;6877;51.436;6.774;2023-12-14T08:59:14;42.97;;;17.13;;
13611;SDS011;6877;51.436;6.774;2023-12-14T09:01:46;40.25;;;16.73;;
13611;SDS011;6877;51.436;6.774;2023-12-14T09:04:12;38.28;;;17.88;;
13611;SDS011;6877;51.436;6.774;2023-12-14T09:06:44;43.80;;;18.00;;
13611;SDS011;6877;51.436;6.774;2023-12-14T09:09:11;46.38;;;18.75;;
13611;SDS011;6877;51.436;6.774;2023-12-14T09:11:43;40.50;;;17.15;;
13611;SDS011;6877;51.436;6.774;2023-12-14T09:14:10;37.15;;;16.42;;
13611;SDS011;6877;51.436;6.774;2023-12-14T09:16:36;41.88;;;16.63;;
13611;SDS011;6877;51.436;6.774;2023-12-14T09:19:08;43.67;;;16.58;;
13611;SDS011;6877;51.436;6.774;2023-12-14T09:21:35;42.85;;;16.80;;
13611;SDS011;6877;51.436;6.774;2023-12-14T09:24:06;41.20;;;17.48;;
13611;SDS011;6877;51.436;6.774;2023-12-14T09:26:37;40.83;;;17.00;;
13611;SDS011;6877;51.436;6.774;2023-12-14T09:29:04;40.53;;;19.40;;
13611;SDS011;6877;51.436;6.774;2023-12-14T09:31:30;45.17;;;19.02;;
13611;SDS011;6877;51.436;6.774;2023-12-14T09:33:57;39.83;;;19.80;;
13611;SDS011;6877;51.436;6.774;2023-12-14T09:36:28;35.47;;;18.60;;
13611;SDS011;6877;51.436;6.774;2023-12-14T09:38:59;40.22;;;17.25;;
13611;SDS011;6877;51.436;6.774;2023-12-14T09:41:31;42.90;;;18.70;;
13611;SDS011;6877;51.436;6.774;2023-12-14T09:44:02;35.63;;;16.20;;
13611;SDS011;6877;51.436;6.774;2023-12-14T09:46:29;33.80;;;14.70;;
13611;SDS011;6877;51.436;6.774;2023-12-14T09:49:02;39.30;;;16.45;;
13611;SDS011;6877;51.436;6.774;2023-12-14T09:51:35;29.75;;;14.38;;
13611;SDS011;6877;51.436;6.774;2023-12-14T09:54:07;33.80;;;16.20;;
13611;SDS011;6877;51.436;6.774;2023-12-14T09:56:34;35.13;;;16.42;;
13611;SDS011;6877;51.436;6.774;2023-12-14T09:59:06;33.15;;;14.93;;
13611;SDS011;6877;51.436;6.774;2023-12-14T10:01:37;34.97;;;16.90;;
13611;SDS011;6877;51.436;6.774;2023-12-14T10:06:33;27.05;;;14.18;;
13611;SDS011;6877;51.436;6.774;2023-12-14T10:08:59;26.80;;;13.15;;
13611;SDS011;6877;51.436;6.774;2023-12-14T10:11:26;28.85;;;12.23;;
13611;SDS011;6877;51.436;6.774;2023-12-14T10:13:53;34.50;;;16.33;;
13611;SDS011;6877;51.436;6.774;2023-12-14T10:16:29;31.35;;;13.95;;
13611;SDS011;6877;51.436;6.774;2023-12-14T10:18:57;29.23;;;13.63;;
13611;SDS011;6877;51.436;6.774;2023-12-14T10:21:25;28.85;;;13.95;;
13611;SDS011;6877;51.436;6.774;2023-12-14T10:23:57;30.25;;;12.63;;
13611;SDS011;6877;51.436;6.774;2023-12-14T10:26:29;30.08;;;12.98;;
13611;SDS011;6877;51.436;6.774;2023-12-14T10:28:57;31.23;;;12.15;;
13611;SDS011;6877;51.436;6.774;2023-12-14T10:31:23;25.35;;;11.88;;
13611;SDS011;6877;51.436;6.774;2023-12-14T10:33:52;30.67;;;12.45;;
13611;SDS011;6877;51.436;6.774;2023-12-14T10:36:24;28.40;;;12.32;;
13611;SDS011;6877;51.436;6.774;2023-12-14T10:38:52;24.35;;;11.90;;
13611;SDS011;6877;51.436;6.774;2023-12-14T10:41:22;26.48;;;12.75;;
13611;SDS011;6877;51.436;6.774;2023-12-14T10:43:50;30.13;;;14.27;;
13611;SDS011;6877;51.436;6.774;2023-12-14T10:46:19;25.58;;;11.98;;
13611;SDS011;6877;51.436;6.774;2023-12-14T10:48:52;29.30;;;12.60;;
13611;SDS011;6877;51.436;6.774;2023-12-14T10:51:23;24.98;;;12.25;;
13611;SDS011;6877;51.436;6.774;2023-12-14T10:53:57;29.50;;;11.77;;
13611;SDS011;6877;51.436;6.774;2023-12-14T10:56:23;21.33;;;10.77;;
13611;SDS011;6877;51.436;6.774;2023-12-14T10:58:51;23.63;;;12.07;;
13611;SDS011;6877;51.436;6.774;2023-12-14T11:01:24;26.30;;;11.00;;
13611;SDS011;6877;51.436;6.774;2023-12-14T11:03:53;22.45;;;11.07;;
13611;SDS011;6877;51.436;6.774;2023-12-14T11:06:26;22.25;;;11.20;;
13611;SDS011;6877;51.436;6.774;2023-12-14T11:08:56;27.65;;;11.38;;
13611;SDS011;6877;51.436;6.774;2023-12-14T11:11:27;23.88;;;10.15;;
13611;SDS011;6877;51.436;6.774;2023-12-14T11:13:55;20.08;;;10.60;;
13611;SDS011;6877;51.436;6.774;2023-12-14T11:16:22;22.20;;;9.38;;
13611;SDS011;6877;51.436;6.774;2023-12-14T11:24:19;23.17;;;9.77;;
13611;SDS011;6877;51.436;6.774;2023-12-14T11:26:51;22.25;;;10.23;;
13611;SDS011;6877;51.436;6.774;2023-12-14T11:29:18;22.55;;;10.73;;
13611;SDS011;6877;51.436;6.774;2023-12-14T11:31:45;23.13;;;11.63;;
13611;SDS011;6877;51.436;6.774;2023-12-14T11:34:17;27.10;;;11.75;;
13611;SDS011;6877;51.436;6.774;2023-12-14T11:36:43;23.35;;;11.50;;
13611;SDS011;6877;51.436;6.774;2023-12-14T11:39:11;21.27;;;11.00;;
13611;SDS011;6877;51.436;6.774;2023-12-14T11:41:38;21.92;;;10.38;;
13611;SDS011;6877;51.436;6.774;2023-12-14T11:44:05;20.13;;;9.52;;
13611;SDS011;6877;51.436;6.774;2023-12-14T11:46:31;20.00;;;9.30;;
13611;SDS011;6877;51.436;6.774;2023-12-14T11:48:58;14.98;;;8.20;;
13611;SDS011;6877;51.436;6.774;2023-12-14T11:51:30;20.25;;;9.20;;
13611;SDS011;6877;51.436;6.774;2023-12-14T11:54:02;18.30;;;8.18;;
13611;SDS011;6877;51.436;6.774;2023-12-14T11:56:28;16.67;;;7.97;;
13611;SDS011;6877;51.436;6.774;2023-12-14T11:58:56;16.95;;;7.85;;
13611;SDS011;6877;51.436;6.774;2023-12-14T12:01:23;18.70;;;8.88;;
13611;SDS011;6877;51.436;6.774;2023-12-14T12:03:56;14.77;;;7.93;;
13611;SDS011;6877;51.436;6.774;2023-12-14T12:06:39;12.45;;;7.65;;
13611;SDS011;6877;51.436;6.774;2023-12-14T12:09:07;20.45;;;8.65;;
13611;SDS011;6877;51.436;6.774;2023-12-14T12:11:36;14.63;;;7.32;;
13611;SDS011;6877;51.436;6.774;2023-12-14T12:14:03;21.23;;;9.77;;
13611;SDS011;6877;51.436;6.774;2023-12-14T12:16:31;19.38;;;8.70;;
13611;SDS011;6877;51.436;6.774;2023-12-14T12:19:02;24.40;;;7.60;;
13611;SDS011;6877;51.436;6.774;2023-12-14T12:21:28;17.73;;;8.23;;
13611;SDS011;6877;51.436;6.774;2023-12-14T12:23:55;16.85;;;7.60;;
13611;SDS011;6877;51.436;6.774;2023-12-14T12:26:26;15.90;;;7.85;;
13611;SDS011;6877;51.436;6.774;2023-12-14T12:28:58;16.52;;;8.07;;
13611;SDS011;6877;51.436;6.774;2023-12-14T12:38:58;17.92;;;7.95;;
13611;SDS011;6877;51.436;6.774;2023-12-14T12:41:25;17.45;;;7.93;;
13611;SDS011;6877;51.436;6.774;2023-12-14T12:43:51;23.02;;;9.73;;
13611;SDS011;6877;51.436;6.774;2023-12-14T12:46:17;21.65;;;10.15;;
13611;SDS011;6877;51.436;6.774;2023-12-14T12:48:44;22.20;;;8.73;;
13611;SDS011;6877;51.436;6.774;2023-12-14T12:51:12;23.02;;;9.88;;
13611;SDS011;6877;51.436;6.774;2023-12-14T12:53:39;23.05;;;10.27;;
13611;SDS011;6877;51.436;6.774;2023-12-14T12:56:05;25.85;;;11.43;;
13611;SDS011;6877;51.436;6.774;2023-12-14T12:58:32;23.90;;;10.70;;
13611;SDS011;6877;51.436;6.774;2023-12-14T13:00:58;26.00;;;10.73;;
13611;SDS011;6877;51.436;6.774;2023-12-14T13:03:25;15.18;;;7.70;;
13611;SDS011;6877;51.436;6.774;2023-12-14T13:05:56;17.88;;;8.27;;
13611;SDS011;6877;51.436;6.774;2023-12-14T13:08:28;17.75;;;8.40;;
13611;SDS011;6877;51.436;6.774;2023-12-14T13:14:14;15.07;;;8.10;;
13611;SDS011;6877;51.436;6.774;2023-12-14T13:16:41;16.90;;;7.45;;
13611;SDS011;6877;51.436;6.774;2023-12-14T13:19:12;20.27;;;8.48;;
13611;SDS011;6877;51.436;6.774;2023-12-14T13:21:44;17.80;;;8.30;;
13611;SDS011;6877;51.436;6.774;2023-12-14T13:24:15;19.10;;;10.55;;
13611;SDS011;6877;51.436;6.774;2023-12-14T13:26:47;14.88;;;7.03;;
13611;SDS011;6877;51.436;6.774;2023-12-14T13:29:18;16.17;;;8.02;;
13611;SDS011;6877;51.436;6.774;2023-12-14T13:31:51;16.13;;;7.70;;
13611;SDS011;6877;51.436;6.774;2023-12-14T13:34:23;10.90;;;6.43;;
13611;SDS011;6877;51.436;6.774;2023-12-14T13:36:55;13.45;;;7.05;;
13611;SDS011;6877;51.436;6.774;2023-12-14T13:39:26;14.38;;;7.00;;
13611;SDS011;6877;51.436;6.774;2023-12-14T13:41:58;15.18;;;7.32;;
13611;SDS011;6877;51.436;6.774;2023-12-14T13:44:29;17.27;;;7.72;;
13611;SDS011;6877;51.436;6.774;2023-12-14T13:47:02;14.98;;;8.07;;
13611;SDS011;6877;51.436;6.774;2023-12-14T15:49:36;17.50;;;8.07;;
13611;SDS011;6877;51.436;6.774;2023-12-14T15:52:08;17.15;;;8.57;;
13611;SDS011;6877;51.436;6.774;2023-12-14T15:54:34;23.95;;;9.73;;
13611;SDS011;6877;51.436;6.774;2023-12-14T15:57:06;19.67;;;10.38;;
13611;SDS011;6877;51.436;6.774;2023-12-14T15:59:33;17.42;;;8.82;;
13611;SDS011;6877;51.436;6.774;2023-12-14T16:01:59;20.02;;;8.93;;
13611;SDS011;6877;51.436;6.774;2023-12-14T16:04:26;21.30;;;8.82;;
13611;SDS011;6877;51.436;6.774;2023-12-14T16:06:53;16.38;;;9.02;;
13611;SDS011;6877;51.436;6.774;2023-12-14T16:09:19;15.98;;;8.15;;
13611;SDS011;6877;51.436;6.774;2023-12-14T16:11:46;20.58;;;8.85;;
13611;SDS011;6877;51.436;6.774;2023-12-14T16:14:12;20.65;;;8.63;;
13611;SDS011;6877;51.436;6.774;2023-12-14T16:16:39;15.38;;;8.32;;
13611;SDS011;6877;51.436;6.774;2023-12-14T16:19:05;22.63;;;7.65;;
13611;SDS011;6877;51.436;6.774;2023-12-14T16:21:31;14.75;;;8.10;;
13611;SDS011;6877;51.436;6.774;2023-12-14T16:24:03;17.52;;;9.18;;
13611;SDS011;6877;51.436;6.774;2023-12-14T16:26:31;18.02;;;9.77;;
13611;SDS011;6877;51.436;6.774;2023-12-14T16:28:58;14.98;;;8.02;;
13611;SDS011;6877;51.436;6.774;2023-12-14T16:31:29;20.23;;;8.38;;
13611;SDS011;6877;51.436;6.774;2023-12-14T16:34:00;17.13;;;8.05;;
13611;SDS011;6877;51.436;6.774;2023-12-14T16:36:32;15.63;;;7.82;;
13611;SDS011;6877;51.436;6.774;2023-12-14T16:38:58;17.00;;;7.97;;
13611;SDS011;6877;51.436;6.774;2023-12-14T16:41:26;20.48;;;9.20;;
13611;SDS011;6877;51.436;6.774;2023-12-14T16:43:52;18.42;;;8.40;;
13611;SDS011;6877;51.436;6.774;2023-12-14T16:46:19;17.85;;;9.43;;
13611;SDS011;6877;51.436;6.774;2023-12-14T16:48:45;17.05;;;8.07;;
13611;SDS011;6877;51.436;6.774;2023-12-14T16:51:20;17.23;;;9.40;;
13611;SDS011;6877;51.436;6.774;2023-12-14T16:53:46;17.50;;;9.35;;
13611;SDS011;6877;51.436;6.774;2023-12-14T16:56:16;22.92;;;9.88;;
13611;SDS011;6877;51.436;6.774;2023-12-14T16:58:44;23.77;;;10.38;;
13611;SDS011;6877;51.436;6.774;2023-12-14T17:01:18;21.15;;;10.27;;
13611;SDS011;6877;51.436;6.774;2023-12-14T17:03:50;21.92;;;10.35;;